DAL1202 KSEA-KMSP
Flight info
| Callsign | DAL1202 |
|---|---|
| Flight time | N/A |
| Altitude | 37000 |
| Route | MONTN2 SEA ZADON ZELAK ZIRAN ZAXBY BLOWS ZERZO SWTHN Q156 UFFDA TORGY4 |
| Aircraft | L101/H-SDFHIRWXY/S |
Departure
| Time | 2026-05-05 03:17 |
|---|---|
| Airport | Seattle–Tacoma International Airport (KSEA) |
Arrival
| Time | N/A |
|---|---|
| Airport | Minneapolis–Saint Paul International Airport / Wold–Chamberlain Field (KMSP) |
| Time | Latitude | Longitude | Altitude | Speed | Heading |
|---|---|---|---|---|---|
| 2026-05-05 02:28 | 47.43916 | -122.30339 | 391 ft | 0 kts | 141° |
| 2026-05-05 02:58 | 47.43926 | -122.30351 | 391 ft | 3 kts | 148° |
| 2026-05-05 02:58 | 47.43951 | -122.30366 | 391 ft | 3 kts | 174° |
| 2026-05-05 02:59 | 47.43976 | -122.30363 | 391 ft | 3 kts | 204° |
| 2026-05-05 02:59 | 47.43997 | -122.30341 | 392 ft | 4 kts | 240° |
| 2026-05-05 02:59 | 47.44001 | -122.30329 | 392 ft | 0 kts | 253° |
| 2026-05-05 03:08 | 47.43999 | -122.30341 | 392 ft | 0 kts | 255° |
| 2026-05-05 03:10 | 47.43997 | -122.30353 | 391 ft | 4 kts | 257° |
| 2026-05-05 03:10 | 47.43991 | -122.30439 | 390 ft | 12 kts | 268° |
| 2026-05-05 03:10 | 47.43998 | -122.30585 | 389 ft | 16 kts | 298° |
| 2026-05-05 03:11 | 47.44101 | -122.30636 | 391 ft | 18 kts | 0° |
| 2026-05-05 03:11 | 47.44234 | -122.30635 | 389 ft | 20 kts | 0° |
| 2026-05-05 03:11 | 47.44382 | -122.30634 | 398 ft | 22 kts | 0° |
| 2026-05-05 03:11 | 47.44542 | -122.30633 | 400 ft | 23 kts | 0° |
| 2026-05-05 03:12 | 47.44703 | -122.30631 | 406 ft | 23 kts | 1° |
| 2026-05-05 03:12 | 47.44868 | -122.30628 | 408 ft | 23 kts | 359° |
| 2026-05-05 03:12 | 47.45029 | -122.30628 | 412 ft | 23 kts | 360° |
| 2026-05-05 03:12 | 47.45191 | -122.30628 | 413 ft | 23 kts | 0° |
| 2026-05-05 03:13 | 47.45345 | -122.30626 | 427 ft | 22 kts | 0° |
| 2026-05-05 03:13 | 47.45497 | -122.30624 | 429 ft | 22 kts | 0° |
| 2026-05-05 03:13 | 47.45649 | -122.30622 | 430 ft | 23 kts | 0° |
| 2026-05-05 03:13 | 47.45814 | -122.30620 | 435 ft | 25 kts | 1° |
| 2026-05-05 03:14 | 47.45991 | -122.30618 | 440 ft | 26 kts | 360° |
| 2026-05-05 03:14 | 47.46180 | -122.30619 | 436 ft | 28 kts | 0° |
| 2026-05-05 03:14 | 47.46327 | -122.30616 | 447 ft | 13 kts | 0° |
| 2026-05-05 03:14 | 47.46356 | -122.30623 | 448 ft | 0 kts | 332° |
| 2026-05-05 03:15 | 47.46362 | -122.30633 | 448 ft | 4 kts | 311° |
| 2026-05-05 03:16 | 47.46370 | -122.30717 | 447 ft | 11 kts | 250° |
| 2026-05-05 03:16 | 47.46310 | -122.30769 | 446 ft | 6 kts | 182° |
| 2026-05-05 03:16 | 47.46283 | -122.30771 | 446 ft | 15 kts | 182° |
| 2026-05-05 03:16 | 47.46061 | -122.30778 | 426 ft | 52 kts | 181° |
| 2026-05-05 03:17 | 47.45461 | -122.30777 | 426 ft | 125 kts | 181° |
| 2026-05-05 03:17 | 47.44334 | -122.30817 | 583 ft | 188 kts | 183° |
| 2026-05-05 03:17 | 47.43013 | -122.30845 | 1726 ft | 192 kts | 183° |
| 2026-05-05 03:17 | 47.41630 | -122.30879 | 2818 ft | 211 kts | 181° |
| 2026-05-05 03:18 | 47.40118 | -122.30919 | 3929 ft | 222 kts | 181° |
| 2026-05-05 03:18 | 47.38482 | -122.30968 | 4821 ft | 255 kts | 178° |
| 2026-05-05 03:18 | 47.36651 | -122.30465 | 5861 ft | 275 kts | 157° |
| 2026-05-05 03:18 | 47.35032 | -122.28970 | 7246 ft | 284 kts | 137° |
| 2026-05-05 03:19 | 47.32671 | -122.23194 | 7563 ft | 356 kts | 102° |
| 2026-05-05 03:19 | 47.32352 | -122.19581 | 8247 ft | 356 kts | 90° |
| 2026-05-05 03:19 | 47.32507 | -122.15956 | 8893 ft | 356 kts | 76° |
| 2026-05-05 03:20 | 47.33469 | -122.12591 | 9444 ft | 359 kts | 54° |
| 2026-05-05 03:20 | 47.35111 | -122.09861 | 10305 ft | 352 kts | 43° |
| 2026-05-05 03:20 | 47.36841 | -122.07455 | 11678 ft | 331 kts | 44° |
| 2026-05-05 03:20 | 47.38377 | -122.05012 | 12915 ft | 322 kts | 47° |
| 2026-05-05 03:21 | 47.39819 | -122.02482 | 13779 ft | 326 kts | 47° |
| 2026-05-05 03:21 | 47.41306 | -121.99856 | 14138 ft | 343 kts | 47° |
| 2026-05-05 03:21 | 47.42910 | -121.97089 | 14220 ft | 366 kts | 47° |
| 2026-05-05 03:21 | 47.44629 | -121.94154 | 14311 ft | 386 kts | 47° |
| 2026-05-05 03:22 | 47.46404 | -121.91107 | 14654 ft | 397 kts | 47° |
| 2026-05-05 03:22 | 47.48200 | -121.87992 | 15431 ft | 395 kts | 47° |
| 2026-05-05 03:22 | 47.49959 | -121.84925 | 16450 ft | 389 kts | 47° |
| 2026-05-05 03:22 | 47.51723 | -121.81854 | 17068 ft | 396 kts | 47° |
| 2026-05-05 03:23 | 47.53492 | -121.78674 | 17439 ft | 407 kts | 52° |
| 2026-05-05 03:23 | 47.54816 | -121.74924 | 18129 ft | 415 kts | 69° |
| 2026-05-05 03:23 | 47.55299 | -121.70754 | 18960 ft | 418 kts | 82° |
| 2026-05-05 03:23 | 47.55421 | -121.66373 | 19485 ft | 425 kts | 84° |
| 2026-05-05 03:24 | 47.55559 | -121.61953 | 19914 ft | 433 kts | 82° |
| 2026-05-05 03:24 | 47.55738 | -121.57511 | 20687 ft | 432 kts | 82° |
| 2026-05-05 03:24 | 47.55834 | -121.53114 | 21395 ft | 435 kts | 85° |
| 2026-05-05 03:24 | 47.55810 | -121.48530 | 21886 ft | 444 kts | 86° |
| 2026-05-05 03:25 | 47.55764 | -121.44011 | 22677 ft | 444 kts | 85° |
| 2026-05-05 03:25 | 47.55727 | -121.39381 | 23338 ft | 448 kts | 85° |
| 2026-05-05 03:25 | 47.55705 | -121.34751 | 23951 ft | 452 kts | 84° |
| 2026-05-05 03:25 | 47.55678 | -121.30081 | 24535 ft | 455 kts | 85° |
| 2026-05-05 03:26 | 47.55631 | -121.25356 | 25091 ft | 459 kts | 85° |
| 2026-05-05 03:26 | 47.55567 | -121.20618 | 25532 ft | 466 kts | 85° |
| 2026-05-05 03:26 | 47.55498 | -121.15816 | 25682 ft | 478 kts | 85° |
| 2026-05-05 03:26 | 47.55414 | -121.10768 | 25783 ft | 491 kts | 86° |
| 2026-05-05 03:27 | 47.55322 | -121.05686 | 26077 ft | 497 kts | 86° |
| 2026-05-05 03:27 | 47.55235 | -121.00587 | 26839 ft | 492 kts | 86° |
| 2026-05-05 03:27 | 47.55149 | -120.95621 | 27766 ft | 486 kts | 86° |
| 2026-05-05 03:27 | 47.55062 | -120.90632 | 28483 ft | 485 kts | 85° |
| 2026-05-05 03:28 | 47.54973 | -120.85573 | 29223 ft | 483 kts | 85° |
| 2026-05-05 03:28 | 47.54882 | -120.80680 | 29969 ft | 482 kts | 85° |
| 2026-05-05 03:28 | 47.54786 | -120.75736 | 30672 ft | 480 kts | 85° |
| 2026-05-05 03:28 | 47.54690 | -120.70804 | 31464 ft | 477 kts | 85° |
| 2026-05-05 03:29 | 47.54593 | -120.65912 | 32319 ft | 474 kts | 85° |
| 2026-05-05 03:29 | 47.54495 | -120.61070 | 33135 ft | 470 kts | 84° |
| 2026-05-05 03:29 | 47.54395 | -120.56233 | 33818 ft | 468 kts | 84° |
| 2026-05-05 03:29 | 47.54297 | -120.51433 | 34329 ft | 467 kts | 84° |
| 2026-05-05 03:30 | 47.54200 | -120.46619 | 34784 ft | 466 kts | 84° |
| 2026-05-05 03:30 | 47.54102 | -120.41854 | 35405 ft | 462 kts | 83° |
| 2026-05-05 03:30 | 47.54016 | -120.37098 | 35896 ft | 461 kts | 83° |
| 2026-05-05 03:30 | 47.53921 | -120.32375 | 36363 ft | 460 kts | 83° |
| 2026-05-05 03:31 | 47.53821 | -120.27603 | 36622 ft | 464 kts | 83° |
| 2026-05-05 03:31 | 47.53729 | -120.22843 | 36731 ft | 464 kts | 83° |
| 2026-05-05 03:31 | 47.53566 | -120.13328 | 36772 ft | 462 kts | 83° |
| 2026-05-05 03:32 | 47.53414 | -120.03828 | 36788 ft | 462 kts | 83° |
| 2026-05-05 03:32 | 47.53256 | -119.94324 | 36775 ft | 462 kts | 83° |
| 2026-05-05 03:33 | 47.53093 | -119.84825 | 36779 ft | 461 kts | 83° |
| 2026-05-05 03:33 | 47.52921 | -119.75346 | 36782 ft | 460 kts | 83° |
| 2026-05-05 03:34 | 47.52744 | -119.65877 | 36802 ft | 461 kts | 83° |
| 2026-05-05 03:34 | 47.52558 | -119.56392 | 36787 ft | 461 kts | 83° |
| 2026-05-05 03:35 | 47.52364 | -119.46912 | 36785 ft | 461 kts | 83° |
| 2026-05-05 03:35 | 47.52162 | -119.37441 | 36788 ft | 461 kts | 83° |
| 2026-05-05 03:36 | 47.51952 | -119.27959 | 36785 ft | 461 kts | 83° |
| 2026-05-05 03:36 | 47.51734 | -119.18479 | 36811 ft | 461 kts | 83° |
| 2026-05-05 03:37 | 47.51507 | -119.08964 | 36808 ft | 462 kts | 83° |
| 2026-05-05 03:37 | 47.51274 | -118.99479 | 36793 ft | 462 kts | 83° |
| 2026-05-05 03:38 | 47.51032 | -118.89975 | 36792 ft | 462 kts | 83° |
| 2026-05-05 03:38 | 47.50782 | -118.80486 | 36798 ft | 462 kts | 83° |
| 2026-05-05 03:39 | 47.50525 | -118.70980 | 36797 ft | 462 kts | 83° |
| 2026-05-05 03:39 | 47.50259 | -118.61464 | 36809 ft | 464 kts | 83° |
| 2026-05-05 03:40 | 47.49989 | -118.51990 | 36810 ft | 465 kts | 83° |
| 2026-05-05 03:40 | 47.49706 | -118.42453 | 36815 ft | 465 kts | 83° |
| 2026-05-05 03:41 | 47.49415 | -118.32908 | 36823 ft | 465 kts | 83° |
| 2026-05-05 03:41 | 47.49117 | -118.23365 | 36821 ft | 465 kts | 83° |
| 2026-05-05 03:42 | 47.48811 | -118.13810 | 36836 ft | 466 kts | 83° |
| 2026-05-05 03:42 | 47.48497 | -118.04236 | 36844 ft | 466 kts | 83° |
| 2026-05-05 03:43 | 47.48174 | -117.94659 | 36845 ft | 466 kts | 83° |
| 2026-05-05 03:43 | 47.47842 | -117.85087 | 36850 ft | 466 kts | 83° |
| 2026-05-05 03:44 | 47.47502 | -117.75515 | 36853 ft | 467 kts | 83° |
| 2026-05-05 03:44 | 47.47155 | -117.65942 | 36864 ft | 467 kts | 83° |
| 2026-05-05 03:45 | 47.46637 | -117.56334 | 36858 ft | 472 kts | 86° |
| 2026-05-05 03:45 | 47.45819 | -117.46691 | 36853 ft | 473 kts | 86° |
| 2026-05-05 03:46 | 47.45116 | -117.37040 | 36861 ft | 471 kts | 85° |
| 2026-05-05 03:46 | 47.44484 | -117.27418 | 36864 ft | 471 kts | 85° |
| 2026-05-05 03:47 | 47.43951 | -117.19415 | 36881 ft | 471 kts | 85° |
| 2026-05-05 03:47 | 47.43307 | -117.09779 | 36890 ft | 472 kts | 85° |
| 2026-05-05 03:48 | 47.42551 | -116.98553 | 36892 ft | 472 kts | 85° |
| 2026-05-05 03:48 | 47.42000 | -116.90464 | 36893 ft | 472 kts | 85° |
| 2026-05-05 03:49 | 47.41335 | -116.80808 | 36901 ft | 473 kts | 85° |
| 2026-05-05 03:49 | 47.40659 | -116.71163 | 36925 ft | 472 kts | 86° |
| 2026-05-05 03:50 | 47.39976 | -116.61513 | 36886 ft | 473 kts | 85° |
| 2026-05-05 03:50 | 47.39294 | -116.51919 | 36881 ft | 474 kts | 85° |
| 2026-05-05 03:51 | 47.38600 | -116.42232 | 36882 ft | 475 kts | 86° |
| 2026-05-05 03:51 | 47.37885 | -116.32474 | 36868 ft | 475 kts | 86° |
| 2026-05-05 03:52 | 47.37164 | -116.22794 | 36875 ft | 475 kts | 86° |
| 2026-05-05 03:52 | 47.36441 | -116.13175 | 36879 ft | 476 kts | 86° |
| 2026-05-05 03:53 | 47.35708 | -116.03470 | 36868 ft | 477 kts | 86° |
| 2026-05-05 03:53 | 47.34962 | -115.93754 | 36863 ft | 477 kts | 86° |
| 2026-05-05 03:54 | 47.34211 | -115.84032 | 36843 ft | 479 kts | 86° |
| 2026-05-05 03:54 | 47.33444 | -115.74276 | 36858 ft | 480 kts | 86° |
| 2026-05-05 03:55 | 47.32668 | -115.64518 | 36867 ft | 479 kts | 86° |
| 2026-05-05 03:55 | 47.31888 | -115.54760 | 36863 ft | 479 kts | 86° |
| 2026-05-05 03:56 | 47.31100 | -115.45005 | 36864 ft | 480 kts | 86° |
| 2026-05-05 03:56 | 47.30298 | -115.35240 | 36866 ft | 481 kts | 87° |
| 2026-05-05 03:57 | 47.29494 | -115.25450 | 36886 ft | 482 kts | 87° |
| 2026-05-05 03:57 | 47.28672 | -115.15641 | 36885 ft | 483 kts | 87° |
| 2026-05-05 03:58 | 47.27843 | -115.05828 | 36899 ft | 483 kts | 87° |
| 2026-05-05 03:58 | 47.27101 | -114.96050 | 36901 ft | 480 kts | 85° |
| 2026-05-05 03:59 | 47.26375 | -114.86255 | 36911 ft | 482 kts | 86° |
| 2026-05-05 03:59 | 47.25668 | -114.76478 | 36903 ft | 478 kts | 85° |
| 2026-05-05 04:00 | 47.25063 | -114.66741 | 36920 ft | 479 kts | 85° |
| 2026-05-05 04:00 | 47.24465 | -114.56932 | 36923 ft | 483 kts | 86° |
| 2026-05-05 04:01 | 47.23855 | -114.47084 | 36933 ft | 483 kts | 86° |
| 2026-05-05 04:01 | 47.23242 | -114.37312 | 36934 ft | 483 kts | 86° |
| 2026-05-05 04:02 | 47.22613 | -114.27470 | 36949 ft | 483 kts | 86° |
| 2026-05-05 04:02 | 47.21983 | -114.17624 | 36953 ft | 484 kts | 86° |
| 2026-05-05 04:03 | 47.21343 | -114.07753 | 36965 ft | 485 kts | 86° |
| 2026-05-05 04:03 | 47.20692 | -113.97857 | 36967 ft | 487 kts | 86° |
| 2026-05-05 04:04 | 47.20029 | -113.87982 | 36983 ft | 486 kts | 87° |
| 2026-05-05 04:04 | 47.19361 | -113.78110 | 36992 ft | 485 kts | 87° |
| 2026-05-05 04:05 | 47.18685 | -113.68221 | 37024 ft | 487 kts | 88° |
| 2026-05-05 04:05 | 47.17995 | -113.58301 | 37012 ft | 488 kts | 88° |
| 2026-05-05 04:06 | 47.17298 | -113.48372 | 37025 ft | 488 kts | 88° |
| 2026-05-05 04:06 | 47.16592 | -113.38443 | 37044 ft | 489 kts | 88° |
| 2026-05-05 04:07 | 47.15877 | -113.28515 | 37097 ft | 489 kts | 88° |
| 2026-05-05 04:07 | 47.15156 | -113.18572 | 37074 ft | 490 kts | 88° |
| 2026-05-05 04:08 | 47.14424 | -113.08674 | 37062 ft | 491 kts | 89° |
| 2026-05-05 04:08 | 47.13679 | -112.98690 | 37077 ft | 492 kts | 89° |
| 2026-05-05 04:09 | 47.12922 | -112.88649 | 37079 ft | 492 kts | 89° |
| 2026-05-05 04:09 | 47.12158 | -112.78649 | 37124 ft | 494 kts | 89° |
| 2026-05-05 04:10 | 47.11385 | -112.68606 | 37088 ft | 496 kts | 90° |
| 2026-05-05 04:10 | 47.10605 | -112.58621 | 37108 ft | 496 kts | 90° |
| 2026-05-05 04:11 | 47.09805 | -112.48562 | 37086 ft | 496 kts | 90° |
| 2026-05-05 04:11 | 47.08999 | -112.38510 | 37102 ft | 496 kts | 90° |
| 2026-05-05 04:12 | 47.08188 | -112.28450 | 37123 ft | 497 kts | 90° |
| 2026-05-05 04:12 | 47.07363 | -112.18335 | 37126 ft | 501 kts | 91° |
| 2026-05-05 04:13 | 47.06521 | -112.08181 | 37127 ft | 502 kts | 91° |
| 2026-05-05 04:13 | 47.05672 | -111.98046 | 37123 ft | 502 kts | 91° |
| 2026-05-05 04:14 | 47.04812 | -111.87887 | 37122 ft | 502 kts | 91° |
| 2026-05-05 04:14 | 47.03945 | -111.77709 | 37127 ft | 504 kts | 91° |
| 2026-05-05 04:15 | 47.03064 | -111.67493 | 37118 ft | 505 kts | 91° |
| 2026-05-05 04:15 | 47.02172 | -111.57274 | 37118 ft | 505 kts | 91° |
| 2026-05-05 04:16 | 47.01269 | -111.47052 | 37104 ft | 506 kts | 92° |
| 2026-05-05 04:16 | 47.00358 | -111.36815 | 37145 ft | 507 kts | 92° |
| 2026-05-05 04:17 | 46.99436 | -111.26534 | 37109 ft | 510 kts | 92° |
| 2026-05-05 04:17 | 46.98502 | -111.16248 | 37106 ft | 511 kts | 92° |
| 2026-05-05 04:18 | 46.97553 | -111.05921 | 37107 ft | 512 kts | 93° |
| 2026-05-05 04:18 | 46.96595 | -110.95590 | 37108 ft | 512 kts | 93° |
| 2026-05-05 04:19 | 46.95625 | -110.85263 | 37119 ft | 513 kts | 93° |
| 2026-05-05 04:19 | 46.94651 | -110.74955 | 37113 ft | 516 kts | 94° |
| 2026-05-05 04:20 | 46.93656 | -110.64545 | 37109 ft | 516 kts | 94° |
| 2026-05-05 04:20 | 46.92652 | -110.54141 | 37113 ft | 516 kts | 94° |
| 2026-05-05 04:21 | 46.91637 | -110.43733 | 37114 ft | 517 kts | 94° |
| 2026-05-05 04:21 | 46.90616 | -110.33319 | 37117 ft | 517 kts | 94° |
| 2026-05-05 04:22 | 46.89580 | -110.22914 | 37115 ft | 517 kts | 94° |
| 2026-05-05 04:22 | 46.88536 | -110.12521 | 37110 ft | 517 kts | 94° |
| 2026-05-05 04:23 | 46.87373 | -110.02147 | 37094 ft | 518 kts | 97° |
| 2026-05-05 04:23 | 46.85851 | -109.91819 | 37121 ft | 521 kts | 98° |
| 2026-05-05 04:24 | 46.84549 | -109.81401 | 37102 ft | 521 kts | 95° |
| 2026-05-05 04:25 | 46.82776 | -109.65712 | 37094 ft | 522 kts | 95° |
| 2026-05-05 04:25 | 46.81592 | -109.55271 | 37085 ft | 522 kts | 95° |
| 2026-05-05 04:26 | 46.80408 | -109.44814 | 37091 ft | 523 kts | 96° |
| 2026-05-05 04:26 | 46.79211 | -109.34322 | 37074 ft | 524 kts | 96° |
| 2026-05-05 04:27 | 46.78007 | -109.23855 | 37075 ft | 524 kts | 96° |
| 2026-05-05 04:27 | 46.76792 | -109.13360 | 37067 ft | 525 kts | 96° |
| 2026-05-05 04:28 | 46.75568 | -109.02872 | 37108 ft | 525 kts | 96° |
| 2026-05-05 04:28 | 46.74335 | -108.92407 | 37079 ft | 527 kts | 96° |
| 2026-05-05 04:29 | 46.73084 | -108.81871 | 37068 ft | 528 kts | 96° |
| 2026-05-05 04:29 | 46.71821 | -108.71324 | 37068 ft | 528 kts | 96° |
| 2026-05-05 04:30 | 46.70548 | -108.60772 | 37083 ft | 528 kts | 96° |
| 2026-05-05 04:30 | 46.69266 | -108.50232 | 37077 ft | 530 kts | 97° |
| 2026-05-05 04:31 | 46.67971 | -108.39670 | 37074 ft | 531 kts | 97° |
| 2026-05-05 04:31 | 46.66661 | -108.29073 | 37070 ft | 531 kts | 97° |
| 2026-05-05 04:32 | 46.65344 | -108.18503 | 37074 ft | 531 kts | 97° |
| 2026-05-05 04:32 | 46.64018 | -108.07937 | 37115 ft | 531 kts | 97° |
| 2026-05-05 04:33 | 46.62676 | -107.97330 | 37089 ft | 533 kts | 98° |
| 2026-05-05 04:33 | 46.61325 | -107.86737 | 37081 ft | 533 kts | 98° |
| 2026-05-05 04:34 | 46.59964 | -107.76149 | 37078 ft | 533 kts | 98° |
| 2026-05-05 04:34 | 46.58590 | -107.65534 | 37076 ft | 534 kts | 98° |
| 2026-05-05 04:35 | 46.57215 | -107.54995 | 37094 ft | 535 kts | 98° |
| 2026-05-05 04:35 | 46.55810 | -107.44312 | 37072 ft | 536 kts | 98° |
| 2026-05-05 04:36 | 46.54639 | -107.35460 | 37082 ft | 536 kts | 98° |
| 2026-05-05 04:36 | 46.53224 | -107.24848 | 37084 ft | 536 kts | 98° |
| 2026-05-05 04:37 | 46.51795 | -107.14206 | 37088 ft | 536 kts | 99° |
| 2026-05-05 04:37 | 46.50358 | -107.03578 | 37063 ft | 538 kts | 99° |
| 2026-05-05 04:38 | 46.48908 | -106.92935 | 37060 ft | 538 kts | 99° |
| 2026-05-05 04:38 | 46.47444 | -106.82272 | 37060 ft | 539 kts | 99° |
| 2026-05-05 04:39 | 46.45971 | -106.71616 | 37059 ft | 539 kts | 99° |
| 2026-05-05 04:39 | 46.44496 | -106.61020 | 37064 ft | 540 kts | 99° |
| 2026-05-05 04:40 | 46.43001 | -106.50358 | 37050 ft | 540 kts | 99° |
| 2026-05-05 04:40 | 46.41494 | -106.39696 | 37051 ft | 540 kts | 99° |
| 2026-05-05 04:41 | 46.39978 | -106.29033 | 37052 ft | 541 kts | 100° |
| 2026-05-05 04:41 | 46.38445 | -106.18336 | 37058 ft | 542 kts | 100° |
| 2026-05-05 04:42 | 46.36903 | -106.07648 | 37051 ft | 543 kts | 100° |
| 2026-05-05 04:42 | 46.35347 | -105.96935 | 37048 ft | 544 kts | 100° |
| 2026-05-05 04:43 | 46.33782 | -105.86238 | 37043 ft | 544 kts | 100° |
| 2026-05-05 04:43 | 46.32204 | -105.75528 | 37042 ft | 544 kts | 100° |
| 2026-05-05 04:44 | 46.30618 | -105.64845 | 37033 ft | 544 kts | 101° |
| 2026-05-05 04:44 | 46.29018 | -105.54129 | 37040 ft | 545 kts | 101° |
| 2026-05-05 04:45 | 46.27409 | -105.43434 | 37035 ft | 545 kts | 101° |
| 2026-05-05 04:45 | 46.25786 | -105.32719 | 37060 ft | 546 kts | 101° |
| 2026-05-05 04:46 | 46.24119 | -105.22022 | 37038 ft | 546 kts | 103° |
| 2026-05-05 04:46 | 46.22106 | -105.11534 | 37035 ft | 546 kts | 105° |
| 2026-05-05 04:47 | 46.20035 | -105.00981 | 37036 ft | 546 kts | 103° |
| 2026-05-05 04:47 | 46.18185 | -104.90375 | 37026 ft | 546 kts | 103° |
| 2026-05-05 04:48 | 46.16358 | -104.79716 | 37034 ft | 547 kts | 103° |
| 2026-05-05 04:48 | 46.14526 | -104.69061 | 37033 ft | 548 kts | 103° |
| 2026-05-05 04:49 | 46.12693 | -104.58395 | 37026 ft | 548 kts | 103° |
| 2026-05-05 04:49 | 46.10853 | -104.47737 | 37025 ft | 548 kts | 103° |
| 2026-05-05 04:50 | 46.09000 | -104.37069 | 37025 ft | 548 kts | 103° |
| 2026-05-05 04:50 | 46.07141 | -104.26424 | 37006 ft | 548 kts | 103° |
| 2026-05-05 04:51 | 46.05273 | -104.15787 | 37018 ft | 550 kts | 103° |
| 2026-05-05 04:51 | 46.03388 | -104.05125 | 37021 ft | 550 kts | 104° |
| 2026-05-05 04:52 | 46.01492 | -103.94457 | 37025 ft | 550 kts | 104° |
| 2026-05-05 04:52 | 45.99581 | -103.83775 | 37019 ft | 551 kts | 104° |
| 2026-05-05 04:53 | 45.97665 | -103.73127 | 37015 ft | 551 kts | 104° |
| 2026-05-05 04:53 | 45.95736 | -103.62462 | 37007 ft | 551 kts | 104° |
| 2026-05-05 04:54 | 45.93800 | -103.51827 | 37017 ft | 551 kts | 104° |
| 2026-05-05 04:54 | 45.91854 | -103.41196 | 36998 ft | 551 kts | 104° |
| 2026-05-05 04:55 | 45.89894 | -103.30552 | 37001 ft | 551 kts | 104° |
| 2026-05-05 04:55 | 45.87929 | -103.19944 | 37006 ft | 551 kts | 104° |
| 2026-05-05 04:56 | 45.85952 | -103.09326 | 37046 ft | 551 kts | 104° |
| 2026-05-05 04:56 | 45.83965 | -102.98719 | 37012 ft | 550 kts | 104° |
| 2026-05-05 04:57 | 45.81981 | -102.88182 | 36995 ft | 552 kts | 104° |
| 2026-05-05 04:57 | 45.79927 | -102.77561 | 36989 ft | 554 kts | 106° |
| 2026-05-05 04:58 | 45.77771 | -102.66980 | 36993 ft | 554 kts | 105° |
| 2026-05-05 04:58 | 45.75726 | -102.56335 | 37007 ft | 553 kts | 104° |
| 2026-05-05 04:59 | 45.73722 | -102.45726 | 37005 ft | 553 kts | 104° |
| 2026-05-05 04:59 | 45.71708 | -102.35115 | 37011 ft | 553 kts | 105° |
| 2026-05-05 05:00 | 45.69688 | -102.24496 | 36986 ft | 553 kts | 105° |
| 2026-05-05 05:00 | 45.67657 | -102.13869 | 37010 ft | 555 kts | 105° |
| 2026-05-05 05:01 | 45.65612 | -102.03226 | 37012 ft | 555 kts | 105° |
| 2026-05-05 05:01 | 45.63557 | -101.92590 | 37000 ft | 555 kts | 105° |
| 2026-05-05 05:02 | 45.61491 | -101.81955 | 37005 ft | 555 kts | 105° |
| 2026-05-05 05:02 | 45.59415 | -101.71326 | 37005 ft | 554 kts | 105° |
| 2026-05-05 05:03 | 45.57338 | -101.60752 | 36968 ft | 554 kts | 105° |
| 2026-05-05 05:03 | 45.55243 | -101.50148 | 36993 ft | 556 kts | 105° |
| 2026-05-05 05:04 | 45.53139 | -101.39548 | 36985 ft | 556 kts | 105° |
| 2026-05-05 05:04 | 45.51034 | -101.29006 | 36987 ft | 556 kts | 106° |
| 2026-05-05 05:05 | 45.48905 | -101.18398 | 36984 ft | 556 kts | 106° |
| 2026-05-05 05:05 | 45.46769 | -101.07810 | 36976 ft | 556 kts | 106° |
| 2026-05-05 05:06 | 45.44624 | -100.97238 | 36977 ft | 556 kts | 106° |
| 2026-05-05 05:06 | 45.42468 | -100.86665 | 36976 ft | 557 kts | 106° |
| 2026-05-05 05:07 | 45.40293 | -100.76055 | 36954 ft | 558 kts | 106° |
| 2026-05-05 05:07 | 45.38112 | -100.65468 | 36939 ft | 558 kts | 107° |
| 2026-05-05 05:08 | 45.35916 | -100.54868 | 36941 ft | 558 kts | 107° |